Time;durP1;ratioP1;P1;durP2;ratioP2;P2;SDS_P1;SDS_P2;PMS_P1;PMS_P2;Temp;Humidity;BMP_temperature;BMP_pressure;BME280_temperature;BME280_humidity;BME280_pressure;Samples;Min_cycle;Max_cycle;Signal;HPM_P1;HPM_P2
2021/11/05 00:02:05;;;;;;;3.28;2.10;;;17.70;68.60;;;;;;10339485;28;20097;-59
2021/11/05 00:07:06;;;;;;;3.20;2.45;;;17.60;68.60;;;;;;10358161;28;20398;-58
2021/11/05 00:12:08;;;;;;;4.25;2.47;;;17.60;68.70;;;;;;10351588;28;20395;-59
2021/11/05 00:17:09;;;;;;;3.65;2.67;;;17.70;68.70;;;;;;10333283;28;20108;-59
2021/11/05 00:22:10;;;;;;;2.90;2.03;;;17.70;68.40;;;;;;10335514;28;20085;-58
2021/11/05 00:27:10;;;;;;;3.17;2.05;;;17.70;68.20;;;;;;10359199;28;20057;-59
2021/11/05 00:32:11;;;;;;;3.15;2.35;;;17.80;68.20;;;;;;10328174;28;20125;-58
2021/11/05 00:37:12;;;;;;;2.85;2.10;;;17.90;68.00;;;;;;10354293;28;20370;-59
2021/11/05 00:42:13;;;;;;;2.90;2.40;;;17.80;67.90;;;;;;10368077;28;20056;-58
2021/11/05 00:47:15;;;;;;;2.88;2.08;;;17.70;68.00;;;;;;10337010;28;20045;-59
2021/11/05 00:52:15;;;;;;;3.78;2.08;;;17.70;68.20;;;;;;10340335;28;20530;-59
2021/11/05 00:57:16;;;;;;;2.50;1.95;;;17.80;68.10;;;;;;10359385;28;20030;-59
2021/11/05 01:02:17;;;;;;;3.30;2.22;;;17.70;68.10;;;;;;10376682;28;20113;-59
2021/11/05 01:07:17;;;;;;;2.85;1.88;;;17.70;68.20;;;;;;10376702;28;20038;-58
2021/11/05 01:12:20;;;;;;;3.30;2.20;;;17.70;68.00;;;;;;10369929;28;20032;-59
2021/11/05 01:17:21;;;;;;;4.28;2.00;;;17.70;68.00;;;;;;10357398;28;20096;-59
2021/11/05 01:22:21;;;;;;;3.22;2.10;;;17.70;68.10;;;;;;10346249;28;20442;-59
2021/11/05 01:27:22;;;;;;;3.00;2.13;;;17.80;68.10;;;;;;10334611;28;20457;-59
2021/11/05 01:32:24;;;;;;;2.83;2.00;;;17.70;67.90;;;;;;10349710;28;20109;-58
2021/11/05 01:37:25;;;;;;;2.63;1.88;;;17.70;68.60;;;;;;10375555;28;20434;-59
2021/11/05 01:42:25;;;;;;;2.40;1.80;;;17.70;68.00;;;;;;10374900;28;20082;-59
2021/11/05 01:47:26;;;;;;;3.17;2.15;;;17.70;67.90;;;;;;10375069;28;20042;-58
2021/11/05 01:52:27;;;;;;;3.20;1.88;;;17.70;68.00;;;;;;10356539;28;20061;-59
2021/11/05 01:57:28;;;;;;;2.70;1.90;;;17.70;68.20;;;;;;10373425;28;20393;-59
2021/11/05 02:02:28;;;;;;;2.15;1.63;;;17.70;67.80;;;;;;10344756;28;20077;-58
2021/11/05 02:07:34;;;;;;;2.90;2.17;;;17.70;67.90;;;;;;10360201;28;20032;-59
2021/11/05 02:12:35;;;;;;;2.30;1.80;;;17.70;68.00;;;;;;10355821;28;20035;-59
2021/11/05 02:17:38;;;;;;;3.47;1.90;;;17.70;67.90;;;;;;10374279;28;20033;-59
2021/11/05 02:22:41;;;;;;;2.47;1.75;;;17.80;67.70;;;;;;10373853;28;20480;-59
2021/11/05 02:27:42;;;;;;;2.38;1.60;;;17.90;67.50;;;;;;10374114;28;20037;-59
2021/11/05 02:32:43;;;;;;;2.45;1.83;;;17.80;67.40;;;;;;10373372;28;20029;-59
2021/11/05 02:37:46;;;;;;;2.53;1.50;;;17.80;67.60;;;;;;10373052;28;20385;-58
2021/11/05 02:42:46;;;;;;;2.47;1.65;;;17.80;67.50;;;;;;10346154;28;20473;-59
2021/11/05 02:47:48;;;;;;;2.95;1.83;;;17.80;67.50;;;;;;10373164;28;20030;-59
2021/11/05 02:52:49;;;;;;;2.08;1.70;;;17.80;67.60;;;;;;10372792;28;20104;-59
2021/11/05 02:57:50;;;;;;;3.00;1.77;;;17.80;67.40;;;;;;10372786;28;20038;-59
2021/11/05 03:02:50;;;;;;;2.25;1.50;;;17.80;67.40;;;;;;10371221;28;20080;-59
2021/11/05 03:07:52;;;;;;;2.13;1.60;;;17.80;67.50;;;;;;10371312;28;20403;-58
2021/11/05 03:12:52;;;;;;;2.20;1.67;;;17.90;67.50;;;;;;10362723;28;20489;-59
2021/11/05 03:17:54;;;;;;;1.80;1.20;;;18.00;68.00;;;;;;10362641;28;20026;-59
2021/11/05 03:22:54;;;;;;;1.80;1.40;;;17.90;68.30;;;;;;10355544;28;20042;-59
2021/11/05 03:27:55;;;;;;;3.97;1.83;;;17.80;68.80;;;;;;10370975;28;20034;-59
2021/11/05 03:32:56;;;;;;;2.05;1.30;;;17.80;69.30;;;;;;10371353;28;20030;-58
2021/11/05 03:37:57;;;;;;;2.00;1.33;;;17.70;69.60;;;;;;10371738;28;20030;-58
2021/11/05 03:42:58;;;;;;;2.83;1.40;;;17.70;69.80;;;;;;10371599;28;20077;-59
2021/11/05 03:47:59;;;;;;;2.03;1.33;;;17.70;69.80;;;;;;10370634;28;20459;-58
2021/11/05 03:52:59;;;;;;;1.55;1.10;;;17.70;69.70;;;;;;10375562;28;20026;-59
2021/11/05 03:58:00;;;;;;;2.70;1.67;;;17.70;69.80;;;;;;10373460;28;20034;-59
2021/11/05 04:03:01;;;;;;;2.17;1.50;;;17.70;69.80;;;;;;10343551;28;20061;-59
2021/11/05 04:08:03;;;;;;;1.67;1.10;;;17.70;69.60;;;;;;10365357;28;20084;-59
2021/11/05 04:13:05;;;;;;;1.95;1.40;;;17.80;69.30;;;;;;10365528;28;20429;-59
2021/11/05 04:18:06;;;;;;;2.15;1.67;;;17.80;69.30;;;;;;10352635;28;20076;-58
2021/11/05 04:23:07;;;;;;;1.70;1.20;;;17.90;69.10;;;;;;10343665;28;20061;-59
2021/11/05 04:28:08;;;;;;;1.98;1.10;;;17.90;68.90;;;;;;10378474;28;20049;-58
2021/11/05 04:33:10;;;;;;;1.92;1.42;;;17.80;68.90;;;;;;10355226;28;20513;-59
2021/11/05 04:38:11;;;;;;;1.35;0.88;;;17.80;69.00;;;;;;10363054;28;20045;-59
2021/11/05 04:43:12;;;;;;;1.60;1.23;;;17.80;69.10;;;;;;10377329;28;20401;-59
2021/11/05 04:48:12;;;;;;;3.75;1.30;;;17.80;69.00;;;;;;10376458;28;20028;-59
2021/11/05 04:53:13;;;;;;;2.20;1.20;;;17.70;68.90;;;;;;10376047;28;20033;-59
2021/11/05 04:58:14;;;;;;;1.48;1.10;;;17.70;69.10;;;;;;10376995;28;20541;-59
2021/11/05 05:03:15;;;;;;;1.65;1.08;;;17.80;69.00;;;;;;10375464;28;20390;-59
2021/11/05 05:08:15;;;;;;;1.83;1.15;;;17.80;68.80;;;;;;10376889;28;20460;-59
2021/11/05 05:13:16;;;;;;;1.63;1.00;;;17.80;68.60;;;;;;10375309;28;20620;-59
2021/11/05 05:18:17;;;;;;;1.55;1.15;;;17.80;68.50;;;;;;10346366;28;20540;-59
2021/11/05 05:23:18;;;;;;;1.67;1.17;;;17.80;68.70;;;;;;10345840;28;20026;-59
2021/11/05 05:28:19;;;;;;;1.40;1.00;;;17.80;68.70;;;;;;10341991;28;20026;-59
2021/11/05 05:33:20;;;;;;;1.88;1.20;;;17.80;68.50;;;;;;10344102;28;20723;-59
2021/11/05 05:38:20;;;;;;;1.80;1.17;;;17.70;68.50;;;;;;10333998;28;20039;-58
2021/11/05 05:43:21;;;;;;;1.50;0.90;;;17.80;68.40;;;;;;10356115;28;20046;-59
2021/11/05 05:48:22;;;;;;;2.03;1.05;;;17.90;68.00;;;;;;10372633;28;20030;-58
2021/11/05 05:53:23;;;;;;;2.95;0.80;;;18.00;67.50;;;;;;10370765;28;20026;-59
2021/11/05 05:58:23;;;;;;;2.92;1.10;;;18.20;67.30;;;;;;10372001;28;20156;-58
2021/11/05 06:03:24;;;;;;;1.88;0.90;;;18.30;67.20;;;;;;10367102;28;20105;-59
2021/11/05 06:08:25;;;;;;;4.72;1.17;;;18.40;67.00;;;;;;10373422;28;20034;-58
2021/11/05 06:13:26;;;;;;;3.55;1.38;;;18.30;68.00;;;;;;10342082;28;20034;-58
2021/11/05 06:18:27;;;;;;;7.20;1.85;;;18.40;67.60;;;;;;10332023;28;20026;-54
2021/11/05 06:23:27;;;;;;;8.27;1.70;;;18.40;67.90;;;;;;10336818;28;20125;-58
2021/11/05 06:28:28;;;;;;;9.75;2.10;;;18.50;68.50;;;;;;10331376;28;20030;-57
2021/11/05 06:33:29;;;;;;;4.05;1.40;;;18.50;68.00;;;;;;10360491;28;20547;-56
2021/11/05 06:38:30;;;;;;;6.55;1.80;;;18.60;68.30;;;;;;10348676;28;20126;-57
2021/11/05 06:43:30;;;;;;;4.32;1.20;;;18.60;67.80;;;;;;10333199;28;20042;-54
2021/11/05 06:48:33;;;;;;;9.55;2.53;;;18.80;66.80;;;;;;10332248;28;20113;-57
2021/11/05 06:53:34;;;;;;;6.82;2.53;;;18.90;66.40;;;;;;10348191;28;20136;-58
2021/11/05 06:58:36;;;;;;;10.75;2.60;;;18.90;66.30;;;;;;10362960;28;20124;-58
2021/11/05 07:03:37;;;;;;;8.77;1.88;;;19.10;66.60;;;;;;10342046;28;20030;-57
2021/11/05 07:08:38;;;;;;;12.80;1.77;;;19.00;66.80;;;;;;10352554;28;20387;-61
2021/11/05 07:13:39;;;;;;;9.32;2.25;;;18.90;66.70;;;;;;10370123;28;20048;-56
2021/11/05 07:18:39;;;;;;;16.88;2.65;;;18.80;66.80;;;;;;10346534;28;20120;-57
2021/11/05 07:23:40;;;;;;;8.85;1.92;;;18.70;67.00;;;;;;10328502;28;20113;-57
2021/11/05 07:28:41;;;;;;;10.50;2.03;;;18.80;67.10;;;;;;10370369;28;20052;-58
2021/11/05 07:33:42;;;;;;;6.97;2.10;;;18.70;67.00;;;;;;10362448;28;20042;-58
2021/11/05 07:38:42;;;;;;;14.70;2.38;;;18.60;67.10;;;;;;10367299;28;20113;-56
2021/11/05 07:43:43;;;;;;;12.10;2.03;;;18.80;66.90;;;;;;10335686;28;20045;-57
2021/11/05 07:48:44;;;;;;;13.43;2.88;;;18.90;66.70;;;;;;10376118;28;20390;-58
2021/11/05 07:53:44;;;;;;;13.88;2.40;;;18.80;66.90;;;;;;10360648;28;20142;-56
2021/11/05 07:58:45;;;;;;;16.00;3.10;;;18.80;68.00;;;;;;10348130;28;20049;-57
2021/11/05 08:03:46;;;;;;;10.32;2.53;;;18.60;68.00;;;;;;10364520;28;20073;-56
2021/11/05 08:08:47;;;;;;;11.43;2.70;;;18.70;68.90;;;;;;10370225;28;20029;-56
2021/11/05 08:13:48;;;;;;;16.13;3.28;;;18.60;69.20;;;;;;10366123;28;20108;-57
2021/11/05 08:18:49;;;;;;;11.57;2.47;;;18.70;69.40;;;;;;10376607;28;20057;-57
2021/11/05 08:23:50;;;;;;;13.20;2.55;;;18.50;68.80;;;;;;10376690;28;20065;-57
2021/11/05 08:28:51;;;;;;;18.55;3.17;;;18.40;69.30;;;;;;10377727;28;20022;-57
2021/11/05 08:33:53;;;;;;;18.83;3.08;;;18.20;69.20;;;;;;10376737;28;20375;-58
2021/11/05 08:38:55;;;;;;;9.50;2.22;;;18.10;69.30;;;;;;10363532;28;20045;-58
2021/11/05 08:43:56;;;;;;;13.07;2.40;;;18.00;70.00;;;;;;10335998;28;20081;-56
2021/11/05 08:49:02;;;;;;;12.68;2.42;;;17.90;70.40;;;;;;10336262;28;20032;-56
2021/11/05 08:54:03;;;;;;;9.95;2.00;;;17.90;70.50;;;;;;10358084;28;20034;-58
2021/11/05 08:59:04;;;;;;;13.02;2.88;;;17.90;70.50;;;;;;10374946;28;20030;-58
2021/11/05 09:04:06;;;;;;;10.68;2.67;;;17.90;70.60;;;;;;10373398;28;20486;-58
2021/11/05 09:09:07;;;;;;;6.88;1.83;;;17.80;70.50;;;;;;10362288;28;20041;-57
2021/11/05 09:14:08;;;;;;;9.70;2.13;;;17.80;70.40;;;;;;10360344;28;20040;-57
2021/11/05 09:19:09;;;;;;;14.15;2.03;;;17.80;70.40;;;;;;10367746;28;20117;-57
2021/11/05 09:24:09;;;;;;;6.03;1.90;;;17.80;70.30;;;;;;10374464;28;20033;-58
2021/11/05 09:29:10;;;;;;;4.65;1.58;;;17.80;70.20;;;;;;10374649;28;20117;-58
2021/11/05 09:34:11;;;;;;;6.22;2.00;;;17.80;70.30;;;;;;10355598;28;20101;-58
2021/11/05 09:39:11;;;;;;;3.63;1.58;;;17.80;70.20;;;;;;10359825;28;20451;-57
2021/11/05 09:44:12;;;;;;;6.07;1.38;;;17.80;70.20;;;;;;10357317;28;20113;-58
2021/11/05 09:49:14;;;;;;;3.72;1.25;;;17.80;70.30;;;;;;10373710;28;20362;-58
2021/11/05 09:54:18;;;;;;;6.25;1.42;;;17.80;70.30;;;;;;10357252;28;20081;-58
2021/11/05 09:59:19;;;;;;;4.50;1.60;;;17.80;70.40;;;;;;10373337;28;20053;-58
2021/11/05 10:04:20;;;;;;;6.00;1.63;;;17.70;70.50;;;;;;10379336;28;20029;-58
2021/11/05 10:09:20;;;;;;;3.92;1.38;;;17.70;70.60;;;;;;10352828;28;20097;-58
2021/11/05 10:14:22;;;;;;;5.57;1.52;;;17.70;70.50;;;;;;10356719;28;20033;-57
2021/11/05 10:19:22;;;;;;;8.73;1.73;;;17.70;70.30;;;;;;10359081;28;20026;-58
2021/11/05 10:24:23;;;;;;;10.20;2.10;;;17.80;70.20;;;;;;10358887;28;20478;-59
2021/11/05 10:29:31;;;;;;;6.20;1.63;;;17.80;70.10;;;;;;10365314;28;20117;-57
2021/11/05 10:34:50;;;;;;;6.45;1.33;;;17.90;70.50;;;;;;10346136;28;20670;-59
2021/11/05 10:39:56;;;;;;;9.00;1.50;;;17.90;70.60;;;;;;10339018;28;20030;-59
2021/11/05 10:45:35;;;;;;;7.82;2.03;;;17.90;70.60;;;;;;10346487;28;20054;-58
2021/11/05 10:50:53;;;;;;;7.00;1.65;;;18.00;70.70;;;;;;10305943;28;20038;-57
2021/11/05 10:56:01;;;;;;;9.70;1.80;;;18.00;70.70;;;;;;10358487;28;20042;-58
2021/11/05 11:01:08;;;;;;;5.38;1.55;;;18.00;70.80;;;;;;10369858;28;20744;-58
2021/11/05 11:06:12;;;;;;;6.00;1.30;;;18.10;70.70;;;;;;10372082;28;20026;-57
2021/11/05 11:11:23;;;;;;;4.10;1.40;;;18.10;70.50;;;;;;10349782;28;20026;-57
2021/11/05 11:16:28;;;;;;;6.72;2.30;;;18.10;70.60;;;;;;10338878;28;20050;-57
2021/11/05 11:21:50;;;;;;;6.20;2.13;;;18.10;70.70;;;;;;10331378;28;20080;-58
2021/11/05 11:26:53;;;;;;;8.60;1.92;;;18.20;70.90;;;;;;10343730;28;20034;-56
2021/11/05 11:31:57;;;;;;;6.85;1.88;;;18.20;70.70;;;;;;10370862;28;20030;-55
2021/11/05 11:37:02;;;;;;;5.15;1.60;;;18.10;72.10;;;;;;10349162;28;20038;-56
2021/11/05 11:42:06;;;;;;;4.88;1.92;;;18.20;71.10;;;;;;10364822;28;20677;-55
2021/11/05 11:47:12;;;;;;;8.35;2.05;;;18.10;72.30;;;;;;10369314;28;20042;-57
2021/11/05 11:52:18;;;;;;;7.53;1.88;;;18.10;72.80;;;;;;10369058;28;20374;-57
2021/11/05 11:57:30;;;;;;;11.13;2.15;;;18.10;72.60;;;;;;10352026;28;20035;-56
2021/11/05 12:02:40;;;;;;;8.75;2.08;;;18.00;72.80;;;;;;10369742;28;20041;-58
2021/11/05 12:07:41;;;;;;;18.77;2.00;;;18.00;72.90;;;;;;10352227;28;20038;-56
2021/11/05 12:12:41;;;;;;;12.15;2.15;;;18.00;73.30;;;;;;10348033;28;20030;-55
2021/11/05 12:17:45;;;;;;;14.30;2.70;;;18.00;73.40;;;;;;10337452;28;20117;-57
2021/11/05 12:23:08;;;;;;;23.85;2.42;;;17.90;73.10;;;;;;10337443;28;20124;-59
2021/11/05 12:28:21;;;;;;;11.38;1.80;;;18.00;73.40;;;;;;10360367;28;20026;-58
2021/11/05 12:33:32;;;;;;;13.50;1.90;;;18.00;73.10;;;;;;10376667;28;20498;-58
2021/11/05 12:39:02;;;;;;;11.25;2.05;;;17.90;73.20;;;;;;10359311;28;20048;-60
2021/11/05 12:44:12;;;;;;;16.35;1.98;;;17.80;73.20;;;;;;10357339;28;20524;-58
2021/11/05 12:49:19;;;;;;;13.45;2.20;;;17.80;73.40;;;;;;10358742;28;20061;-58
2021/11/05 12:54:25;;;;;;;13.05;1.55;;;17.80;73.40;;;;;;10351895;28;20026;-58
2021/11/05 12:59:29;;;;;;;16.60;2.55;;;17.80;73.30;;;;;;10340177;28;20113;-58
2021/11/05 13:04:40;;;;;;;11.25;2.13;;;17.80;72.90;;;;;;10373581;28;20386;-57
2021/11/05 13:09:42;;;;;;;11.23;2.33;;;17.70;72.90;;;;;;10336006;28;20035;-58
2021/11/05 13:14:46;;;;;;;13.80;2.15;;;17.70;72.70;;;;;;10353206;28;20415;-59
2021/11/05 13:20:13;;;;;;;8.32;1.95;;;17.80;72.70;;;;;;10355012;28;20030;-54
2021/11/05 13:25:30;;;;;;;21.65;3.17;;;18.10;71.70;;;;;;10359247;28;20031;-48
2021/11/05 13:30:51;;;;;;;14.05;2.30;;;18.30;72.10;;;;;;10359363;28;20030;-52
2021/11/05 13:36:07;;;;;;;15.60;2.50;;;18.40;72.20;;;;;;10355436;28;20153;-52
2021/11/05 13:41:17;;;;;;;8.00;2.33;;;18.40;73.00;;;;;;10358277;28;20030;-57
2021/11/05 13:46:23;;;;;;;16.33;3.00;;;18.40;73.40;;;;;;10334286;28;20050;-56
2021/11/05 13:51:35;;;;;;;16.25;2.88;;;18.30;73.60;;;;;;10332727;28;20390;-50
2021/11/05 13:56:46;;;;;;;15.57;3.05;;;18.30;73.30;;;;;;10353045;28;20186;-53
2021/11/05 14:01:50;;;;;;;19.08;2.60;;;18.20;74.10;;;;;;10359693;28;20038;-52
2021/11/05 14:06:55;;;;;;;17.88;2.83;;;18.20;74.00;;;;;;10370165;28;20429;-54
2021/11/05 14:12:00;;;;;;;17.88;3.28;;;18.20;74.30;;;;;;10354419;28;20458;-49
2021/11/05 14:17:12;;;;;;;21.85;3.40;;;18.20;74.40;;;;;;10358708;28;20100;-53
2021/11/05 14:22:12;;;;;;;19.48;3.90;;;18.10;74.70;;;;;;10371106;28;20032;-52
2021/11/05 14:27:29;;;;;;;16.00;3.22;;;18.10;74.30;;;;;;10372206;28;20480;-54
2021/11/05 14:32:37;;;;;;;25.27;3.50;;;18.00;74.30;;;;;;10342495;28;20034;-49
2021/11/05 14:37:50;;;;;;;25.42;3.72;;;17.90;74.70;;;;;;10365527;28;20044;-49
2021/11/05 14:43:15;;;;;;;22.35;3.08;;;18.00;75.10;;;;;;10355210;28;20546;-49
2021/11/05 14:48:19;;;;;;;18.83;3.03;;;17.90;74.90;;;;;;10331334;28;20490;-50
2021/11/05 14:53:44;;;;;;;27.75;3.30;;;17.90;75.20;;;;;;10370709;28;20044;-49
2021/11/05 14:58:47;;;;;;;22.60;3.50;;;17.80;75.10;;;;;;10361691;28;20065;-49
2021/11/05 15:04:06;;;;;;;21.80;4.07;;;17.80;75.70;;;;;;10370407;28;20034;-54
2021/11/05 15:09:10;;;;;;;38.08;4.82;;;17.80;75.50;;;;;;10368392;28;20556;-48
2021/11/05 15:14:11;;;;;;;27.02;4.88;;;17.90;75.90;;;;;;10349367;28;20397;-54
2021/11/05 15:19:14;;;;;;;27.50;5.32;;;17.90;75.70;;;;;;10330404;28;20034;-56
2021/11/05 15:24:14;;;;;;;25.75;4.05;;;17.90;75.50;;;;;;10351958;28;20073;-53
2021/11/05 15:29:15;;;;;;;16.75;3.88;;;17.90;75.50;;;;;;10361332;28;20560;-50
2021/11/05 15:34:16;;;;;;;20.63;3.45;;;17.80;75.30;;;;;;10364324;28;20068;-53
2021/11/05 15:39:16;;;;;;;21.55;4.05;;;17.70;75.10;;;;;;10346628;28;20065;-52
2021/11/05 15:44:17;;;;;;;24.20;3.35;;;17.80;75.30;;;;;;10329921;28;20137;-56
2021/11/05 15:49:17;;;;;;;12.40;3.03;;;17.80;75.20;;;;;;10332054;28;20219;-53
2021/11/05 15:54:18;;;;;;;28.88;3.65;;;17.80;74.90;;;;;;10335967;28;20037;-53
2021/11/05 15:59:19;;;;;;;16.98;3.40;;;18.00;75.00;;;;;;10337325;28;20037;-53
2021/11/05 16:04:20;;;;;;;15.48;2.65;;;18.10;74.60;;;;;;10357282;28;20037;-55
2021/11/05 16:09:22;;;;;;;22.88;3.13;;;18.30;74.70;;;;;;10358690;28;20048;-54
2021/11/05 16:14:22;;;;;;;18.45;2.63;;;18.30;74.70;;;;;;10363891;28;20025;-53
2021/11/05 16:19:23;;;;;;;15.52;2.88;;;18.30;75.00;;;;;;10362642;28;20514;-52
2021/11/05 16:24:24;;;;;;;20.73;3.15;;;18.40;74.80;;;;;;10353054;28;20088;-50
2021/11/05 16:29:25;;;;;;;12.07;2.80;;;18.40;74.50;;;;;;10348439;28;20150;-50
2021/11/05 16:34:26;;;;;;;12.30;2.38;;;18.40;75.00;;;;;;10360141;28;20033;-56
2021/11/05 16:39:26;;;;;;;9.90;2.13;;;18.30;74.80;;;;;;10350028;28;20112;-51
2021/11/05 16:44:29;;;;;;;14.93;2.97;;;18.30;74.60;;;;;;10335677;28;20129;-51
2021/11/05 16:49:30;;;;;;;16.08;3.10;;;18.30;74.00;;;;;;10367016;28;20433;-55
2021/11/05 16:54:31;;;;;;;5.60;1.30;;;18.30;73.20;;;;;;10363314;28;20051;-51
2021/11/05 16:59:32;;;;;;;13.70;3.30;;;18.40;71.70;;;;;;10377999;28;20359;-57
2021/11/05 17:04:33;;;;;;;11.40;3.20;;;18.50;70.70;;;;;;10369125;28;20037;-57
2021/11/05 17:09:34;;;;;;;16.48;4.00;;;18.80;70.10;;;;;;10340257;28;20022;-53
2021/11/05 17:14:35;;;;;;;25.52;11.43;;;18.70;69.20;;;;;;10372926;28;20121;-54
2021/11/05 17:19:38;;;;;;;26.65;10.65;;;18.90;70.40;;;;;;10367075;28;20079;-52
2021/11/05 17:24:38;;;;;;;25.02;10.00;;;19.00;72.20;;;;;;10358479;28;20038;-55
2021/11/05 17:29:39;;;;;;;13.90;7.22;;;19.00;74.80;;;;;;10353453;28;20096;-50
2021/11/05 17:34:43;;;;;;;16.23;7.60;;;18.90;73.40;;;;;;10375869;28;20033;-49
2021/11/05 17:39:44;;;;;;;14.77;7.53;;;18.80;73.20;;;;;;10358576;28;20513;-51
2021/11/05 17:44:45;;;;;;;15.90;7.25;;;18.80;73.60;;;;;;10374919;28;20050;-53
2021/11/05 17:49:46;;;;;;;16.73;7.20;;;18.70;73.70;;;;;;10361913;28;20034;-52
2021/11/05 17:54:47;;;;;;;19.15;7.18;;;18.60;73.90;;;;;;10371873;28;20491;-47
2021/11/05 17:59:48;;;;;;;12.98;5.35;;;18.50;73.90;;;;;;10354944;28;20038;-55
2021/11/05 18:04:49;;;;;;;15.88;6.18;;;18.50;74.10;;;;;;10346224;28;20121;-50
2021/11/05 18:09:50;;;;;;;12.60;5.80;;;18.30;74.40;;;;;;10356758;28;20037;-47
2021/11/05 18:14:51;;;;;;;14.10;5.07;;;18.30;74.30;;;;;;10348983;28;20568;-49
2021/11/05 18:19:52;;;;;;;12.68;5.75;;;18.30;73.90;;;;;;10334277;28;20115;-51
2021/11/05 18:24:52;;;;;;;12.02;4.90;;;18.20;74.00;;;;;;10338155;28;20036;-50
2021/11/05 18:29:53;;;;;;;10.55;4.80;;;18.10;74.20;;;;;;10333598;28;20065;-48
2021/11/05 18:34:54;;;;;;;12.20;4.80;;;18.00;74.30;;;;;;10333548;28;20105;-49
2021/11/05 18:39:55;;;;;;;10.38;4.03;;;17.90;74.40;;;;;;10347283;28;20038;-48
2021/11/05 18:45:00;;;;;;;12.38;3.92;;;17.90;74.50;;;;;;10370347;28;20045;-50
2021/11/05 18:50:03;;;;;;;9.55;3.97;;;17.90;74.10;;;;;;10358377;28;20034;-49
2021/11/05 18:55:04;;;;;;;9.00;4.03;;;17.90;73.80;;;;;;10355551;28;20041;-49
2021/11/05 19:00:09;;;;;;;9.43;4.35;;;18.00;73.60;;;;;;10354902;28;20080;-53
2021/11/05 19:05:10;;;;;;;14.02;4.38;;;18.10;73.40;;;;;;10371017;28;20025;-49
2021/11/05 19:10:11;;;;;;;10.40;3.55;;;18.20;72.80;;;;;;10353368;28;20031;-47
2021/11/05 19:15:13;;;;;;;7.88;3.63;;;18.10;72.70;;;;;;10368487;28;20049;-47
2021/11/05 19:20:13;;;;;;;13.40;3.33;;;18.20;73.20;;;;;;10366797;28;20109;-49
2021/11/05 19:25:15;;;;;;;10.20;3.20;;;18.20;73.50;;;;;;10355929;28;20038;-47
2021/11/05 19:30:18;;;;;;;10.27;3.13;;;18.20;73.60;;;;;;10364704;28;20075;-46
2021/11/05 19:35:20;;;;;;;8.43;2.70;;;18.20;73.50;;;;;;10379160;28;20413;-50
2021/11/05 19:40:24;;;;;;;8.77;2.90;;;18.20;73.60;;;;;;10357593;28;20038;-51
2021/11/05 19:45:25;;;;;;;6.05;2.28;;;18.20;73.40;;;;;;10365718;28;20137;-51
2021/11/05 19:50:26;;;;;;;7.55;2.75;;;18.20;73.30;;;;;;10366916;28;20164;-50
2021/11/05 19:55:30;;;;;;;9.00;3.22;;;18.20;73.40;;;;;;10368958;28;20030;-52
2021/11/05 20:00:31;;;;;;;9.25;2.72;;;18.20;72.90;;;;;;10367618;28;20096;-51
2021/11/05 20:05:34;;;;;;;7.50;3.15;;;18.20;73.40;;;;;;10367264;28;20041;-52
2021/11/05 20:10:35;;;;;;;8.45;2.17;;;18.20;72.50;;;;;;10367200;28;20030;-51
2021/11/05 20:15:38;;;;;;;4.90;2.45;;;18.20;72.60;;;;;;10350150;28;20045;-51
2021/11/05 20:20:41;;;;;;;5.22;2.20;;;18.10;72.60;;;;;;10369284;28;20393;-50
2021/11/05 20:25:44;;;;;;;6.50;1.80;;;18.10;72.70;;;;;;10365841;28;20135;-50
2021/11/05 20:30:45;;;;;;;4.03;2.10;;;18.00;72.80;;;;;;10367382;28;20084;-50
2021/11/05 20:35:49;;;;;;;8.15;1.98;;;18.00;73.00;;;;;;10388379;28;20536;-48
2021/11/05 20:40:52;;;;;;;6.25;2.22;;;17.90;73.00;;;;;;10355091;28;20525;-49
2021/11/05 20:45:57;;;;;;;5.65;1.83;;;17.90;73.30;;;;;;10337345;28;20051;-49
2021/11/05 20:50:58;;;;;;;4.13;1.20;;;17.80;73.40;;;;;;10341991;28;20113;-48
2021/11/05 20:55:59;;;;;;;9.73;2.13;;;17.80;73.40;;;;;;10334846;28;20037;-48
2021/11/05 21:01:00;;;;;;;5.15;1.98;;;17.70;73.40;;;;;;10345674;28;20038;-52
2021/11/05 21:06:01;;;;;;;4.35;1.88;;;17.70;73.50;;;;;;10373540;28;20070;-54
2021/11/05 21:11:04;;;;;;;4.13;1.40;;;17.60;73.50;;;;;;10364924;28;20394;-52
2021/11/05 21:16:05;;;;;;;4.47;1.70;;;17.60;73.60;;;;;;10342404;28;20034;-52
2021/11/05 21:21:13;;;;;;;4.20;1.52;;;17.60;73.60;;;;;;10349659;28;20053;-53
2021/11/05 21:26:16;;;;;;;3.72;1.30;;;17.50;73.60;;;;;;10335988;28;20033;-52
2021/11/05 21:31:18;;;;;;;3.35;1.48;;;17.50;73.60;;;;;;10352594;28;20564;-51
2021/11/05 21:36:22;;;;;;;3.50;1.55;;;17.50;73.90;;;;;;10376191;28;20065;-49
2021/11/05 21:41:22;;;;;;;2.95;1.38;;;17.40;73.60;;;;;;10375533;28;20389;-49
2021/11/05 21:46:24;;;;;;;4.43;1.42;;;17.40;73.60;;;;;;10374119;28;20045;-48
2021/11/05 21:51:25;;;;;;;3.92;1.50;;;17.40;73.70;;;;;;10348776;28;20026;-53
2021/11/05 21:56:26;;;;;;;3.42;1.48;;;17.30;73.60;;;;;;10342766;28;20038;-48
2021/11/05 22:01:27;;;;;;;5.43;1.65;;;17.30;73.50;;;;;;10335578;28;20030;-52
2021/11/05 22:06:28;;;;;;;3.90;1.40;;;17.30;73.50;;;;;;10356049;28;20026;-48
2021/11/05 22:11:29;;;;;;;2.25;1.15;;;17.40;73.50;;;;;;10365385;28;20032;-47
2021/11/05 22:16:29;;;;;;;4.03;1.08;;;17.40;73.10;;;;;;10350394;28;20040;-48
2021/11/05 22:21:31;;;;;;;7.00;1.40;;;17.40;73.00;;;;;;10374109;28;20390;-48
2021/11/05 22:26:32;;;;;;;3.13;1.67;;;17.50;73.10;;;;;;10374101;28;20030;-48
2021/11/05 22:31:33;;;;;;;3.83;1.00;;;17.40;73.10;;;;;;10373670;28;20041;-47
2021/11/05 22:36:34;;;;;;;4.47;1.73;;;17.50;73.10;;;;;;10373682;28;20061;-48
2021/11/05 22:41:35;;;;;;;2.58;1.20;;;17.50;72.70;;;;;;10373493;28;20037;-47
2021/11/05 22:46:36;;;;;;;4.32;1.55;;;17.50;72.60;;;;;;10373218;28;20058;-48
2021/11/05 22:51:37;;;;;;;2.40;1.20;;;17.50;72.60;;;;;;10373150;28;20478;-48
2021/11/05 22:56:37;;;;;;;2.63;1.02;;;17.60;72.40;;;;;;10372932;28;20041;-47
2021/11/05 23:01:38;;;;;;;2.25;1.23;;;17.70;72.20;;;;;;10350929;28;20069;-49
2021/11/05 23:06:39;;;;;;;3.63;1.17;;;17.60;72.10;;;;;;10355832;28;20033;-48
2021/11/05 23:11:44;;;;;;;1.55;0.90;;;17.70;72.00;;;;;;10355100;28;20474;-47
2021/11/05 23:16:44;;;;;;;1.75;1.25;;;17.70;71.70;;;;;;10330362;28;20022;-49
2021/11/05 23:21:45;;;;;;;1.63;0.85;;;17.70;71.70;;;;;;10367649;28;20034;-48
2021/11/05 23:26:46;;;;;;;2.28;1.40;;;17.70;71.80;;;;;;10371496;28;20038;-47
2021/11/05 23:31:47;;;;;;;2.42;0.75;;;17.60;71.80;;;;;;10371816;28;20044;-49
2021/11/05 23:36:48;;;;;;;4.00;1.05;;;17.60;72.00;;;;;;10371928;28;20130;-48
2021/11/05 23:41:49;;;;;;;2.97;1.00;;;17.50;72.10;;;;;;10371538;28;20045;-48
2021/11/05 23:46:49;;;;;;;4.25;0.95;;;17.60;72.00;;;;;;10371677;28;20037;-49
2021/11/05 23:51:50;;;;;;;2.15;1.10;;;17.60;71.90;;;;;;10362775;28;20038;-48
2021/11/05 23:56:51;;;;;;;2.65;1.08;;;17.70;71.60;;;;;;10371717;28;20025;-47
